Terminal Aerodrome Forecast
Issued by NWS

Home | Current Version | Previous Version | Text Only | Print | Product List | Glossary On
Versions: 1 2 3 4 5 6 7 8 9 10 11 12 13 14 15 16 17 18 19
000
FTUS42 TJSJ 290500
TAFISX
TAF
TISX 290526Z 2906/3006 14005KT P6SM VCSH SCT025 BKN050
      TEMPO 2906/2908 VRB06KT SHRA BKN025 BKN050
     FM291300 11013KT P6SM SCT025
     FM292300 07006KT P6SM FEW025=

USA.gov is the U.S. government's official web portal to all federal, state and local government web resources and services.